Terminal Aerodrome Forecast
Issued by NWS Houston/Galveston, TX

Home | Current Version | Previous Version | Text Only | Print | Product List | Glossary On
Versions: 1 2 3 4 5 6 7 8 9 10 11 12 13 14
000
FTUS44 KHGX 211411 AAA
TAFGLS
TAF AMD
KGLS 211411Z 2114/2212 15010KT P6SM SCT020
     FM211800 16010KT P6SM FEW035 SCT050
     FM220300 18007KT P6SM MIFG SCT150
     FM220600 21006KT P6SM MIFG SCT250=

USA.gov is the U.S. government's official web portal to all federal, state and local government web resources and services.